Time;durP1;ratioP1;P1;durP2;ratioP2;P2;SDS_P1;SDS_P2;PMS_P1;PMS_P2;Temp;Humidity;BMP_temperature;BMP_pressure;BME280_temperature;BME280_humidity;BME280_pressure;Samples;Min_cycle;Max_cycle;Signal;HPM_P1;HPM_P2
2023/05/23 00:00:56;;;;;;;;;;;17.90;52.40;;;14.00;100.00;95365.69;4992972;28;19909;-46
2023/05/23 00:03:22;;;;;;;;;;;17.90;52.70;;;13.98;100.00;95361.72;4988911;28;19913;-54
2023/05/23 00:05:49;;;;;;;;;;;17.90;52.60;;;13.91;100.00;95362.06;4993242;28;19932;-49
2023/05/23 00:08:15;;;;;;;;;;;17.90;52.70;;;13.81;100.00;95365.69;4992177;28;19909;-50
2023/05/23 00:10:41;;;;;;;;;;;17.80;52.80;;;13.85;100.00;95364.03;4992675;28;19916;-50
2023/05/23 00:13:08;;;;;;;;;;;17.80;52.90;;;13.77;100.00;95369.25;4992596;28;19909;-50
2023/05/23 00:15:37;;;;;;;;;;;17.80;52.90;;;13.80;100.00;95363.31;4984176;28;19916;-47
2023/05/23 00:18:04;;;;;;;;;;;17.70;53.00;;;13.67;100.00;95367.50;4992832;28;19909;-51
2023/05/23 00:20:30;;;;;;;;;;;17.70;53.70;;;13.65;100.00;95359.75;4991586;28;19916;-51
2023/05/23 00:22:58;;;;;;;;;;;17.70;53.30;;;13.64;100.00;95360.06;4992733;28;20307;-48
2023/05/23 00:25:25;;;;;;;;;;;17.60;53.30;;;13.64;100.00;95357.38;4992149;28;19909;-50
2023/05/23 00:27:50;;;;;;;;;;;17.60;53.40;;;13.58;100.00;95359.31;4991798;28;19913;-50
2023/05/23 00:30:16;;;;;;;;;;;17.50;53.50;;;13.58;100.00;95364.69;4992920;28;19913;-49
2023/05/23 00:32:42;;;;;;;;;;;17.50;53.60;;;13.56;100.00;95360.69;4991208;28;19936;-49
2023/05/23 00:35:08;;;;;;;;;;;17.50;53.70;;;13.51;100.00;95358.09;4982988;28;20007;-50
2023/05/23 00:37:34;;;;;;;;;;;17.50;53.90;;;13.45;100.00;95360.03;4992385;28;19941;-47
2023/05/23 00:40:00;;;;;;;;;;;17.50;53.90;;;13.43;100.00;95363.00;4991258;28;20382;-47
2023/05/23 00:42:25;;;;;;;;;;;17.40;54.00;;;13.38;100.00;95359.59;4992177;28;19920;-48
2023/05/23 00:44:51;;;;;;;;;;;17.40;54.10;;;13.34;100.00;95366.59;4989711;28;20429;-55
2023/05/23 00:47:18;;;;;;;;;;;17.40;54.20;;;13.36;100.00;95365.22;4992249;28;19953;-48
2023/05/23 00:49:44;;;;;;;;;;;17.40;54.30;;;13.38;100.00;95367.59;4992172;28;19936;-52
2023/05/23 00:52:10;;;;;;;;;;;17.40;54.40;;;13.32;100.00;95358.09;4991797;28;19955;-49
2023/05/23 00:54:38;;;;;;;;;;;17.30;54.40;;;13.33;100.00;95365.00;4991581;28;19917;-47
2023/05/23 00:57:04;;;;;;;;;;;17.30;54.50;;;13.31;100.00;95365.28;4984969;28;19917;-48
2023/05/23 00:59:32;;;;;;;;;;;17.30;54.60;;;13.26;100.00;95369.94;5007360;28;19987;-49
2023/05/23 01:02:00;;;;;;;;;;;17.20;54.60;;;13.17;100.00;95365.16;5005304;28;20486;-49
2023/05/23 01:04:27;;;;;;;;;;;17.20;54.70;;;13.15;100.00;95358.50;4991450;28;20386;-48
2023/05/23 01:06:56;;;;;;;;;;;17.20;54.80;;;13.13;100.00;95363.34;4991803;28;19920;-50
2023/05/23 01:09:26;;;;;;;;;;;17.10;54.80;;;13.11;100.00;95365.53;4990893;28;20595;-50
2023/05/23 01:12:18;;;;;;;;;;;17.10;54.90;;;13.10;100.00;95361.22;5006611;28;19982;-54
2023/05/23 01:15:11;;;;;;;;;;;17.10;55.00;;;13.10;100.00;95353.22;5005295;28;20036;-48
2023/05/23 01:18:00;;;;;;;;;;;17.00;55.10;;;13.06;100.00;95353.00;4984930;28;20008;-47
2023/05/23 01:20:47;;;;;;;;;;;17.00;55.20;;;13.05;100.00;95358.63;4979610;28;20403;-51
2023/05/23 01:23:38;;;;;;;;;;;17.00;55.30;;;13.02;100.00;95357.31;5005709;28;20303;-49
2023/05/23 01:26:48;;;;;;;;;;;17.00;55.40;;;13.02;100.00;95369.91;4990152;28;20003;-47
2023/05/23 01:29:27;;;;;;;;;;;17.00;55.60;;;12.98;100.00;95366.22;4991673;28;19909;-48
2023/05/23 01:31:57;;;;;;;;;;;16.90;55.60;;;12.91;100.00;95364.66;5005439;28;20336;-50
2023/05/23 01:34:23;;;;;;;;;;;16.90;55.70;;;12.88;100.00;95362.56;4989564;28;19918;-47
2023/05/23 01:36:55;;;;;;;;;;;16.90;55.70;;;12.82;100.00;95360.22;5006995;28;19959;-47
2023/05/23 01:39:22;;;;;;;;;;;16.90;55.80;;;12.81;100.00;95358.63;4983586;28;19963;-47
2023/05/23 01:41:50;;;;;;;;;;;16.90;55.90;;;12.82;100.00;95368.25;4990398;28;20020;-47
2023/05/23 01:44:16;;;;;;;;;;;16.80;55.80;;;12.82;100.00;95369.03;4986036;28;19910;-47
2023/05/23 01:46:44;;;;;;;;;;;16.80;56.00;;;12.88;100.00;95375.09;4999330;28;19925;-47
2023/05/23 01:49:15;;;;;;;;;;;16.90;56.10;;;12.92;100.00;95384.19;4991679;28;19909;-47
2023/05/23 01:51:41;;;;;;;;;;;16.80;56.20;;;12.90;100.00;95378.31;5002575;28;20390;-48
2023/05/23 01:54:07;;;;;;;;;;;16.80;56.30;;;12.87;100.00;95376.19;5006115;28;19915;-47
2023/05/23 01:56:33;;;;;;;;;;;16.90;56.30;;;12.75;100.00;95373.91;4990470;28;19909;-47
2023/05/23 01:59:00;;;;;;;;;;;16.80;56.30;;;12.76;100.00;95370.19;5006527;28;19996;-50
2023/05/23 02:01:26;;;;;;;;;;;16.80;56.30;;;12.70;100.00;95365.97;5006294;28;19995;-47
2023/05/23 02:03:52;;;;;;;;;;;16.80;56.90;;;12.68;100.00;95368.91;4990175;28;19909;-50
2023/05/23 02:06:18;;;;;;;;;;;16.80;56.40;;;12.67;100.00;95371.88;4991600;28;20345;-49
2023/05/23 02:08:44;;;;;;;;;;;16.80;56.50;;;12.68;100.00;95368.91;4988177;28;19913;-48
2023/05/23 02:11:10;;;;;;;;;;;16.80;56.50;;;12.67;100.00;95374.53;4991366;28;19910;-48
2023/05/23 02:13:36;;;;;;;;;;;16.70;56.60;;;12.65;100.00;95368.66;4990782;28;20000;-47
2023/05/23 02:16:02;;;;;;;;;;;16.70;56.70;;;12.66;100.00;95372.94;4981542;28;19956;-47
2023/05/23 02:18:28;;;;;;;;;;;16.70;56.70;;;12.65;100.00;95374.03;4978481;28;19913;-47
2023/05/23 02:20:55;;;;;;;;;;;16.70;56.80;;;12.61;100.00;95373.78;4981698;28;20513;-50
2023/05/23 02:23:21;;;;;;;;;;;16.70;56.80;;;12.61;100.00;95373.78;4989304;28;19909;-47
2023/05/23 02:25:47;;;;;;;;;;;16.70;56.90;;;12.55;100.00;95376.78;4990080;28;19971;-49
2023/05/23 02:28:13;;;;;;;;;;;16.70;56.90;;;12.52;100.00;95374.69;4991043;28;20372;-48
2023/05/23 02:30:39;;;;;;;;;;;16.70;56.90;;;12.52;100.00;95378.16;4991734;28;20279;-48
2023/05/23 02:33:06;;;;;;;;;;;16.60;56.90;;;12.54;100.00;95378.69;4986071;28;19936;-52
2023/05/23 02:35:33;;;;;;;;;;;16.60;57.00;;;12.54;100.00;95380.56;5010062;22;19982;-51
2023/05/23 02:37:59;;;;;;;;;;;16.60;57.10;;;12.49;100.00;95376.81;4995969;28;19959;-51
2023/05/23 02:40:25;;;;;;;;;;;16.60;57.20;;;12.48;100.00;95377.91;5014326;28;19967;-49
2023/05/23 02:42:51;;;;;;;;;;;16.60;57.30;;;12.47;100.00;95387.03;5014789;28;19917;-51
2023/05/23 02:45:17;;;;;;;;;;;16.60;57.20;;;12.52;100.00;95388.84;5008088;28;19918;-48
2023/05/23 02:47:43;;;;;;;;;;;16.60;57.30;;;12.53;100.00;95382.41;4995308;28;19916;-52
2023/05/23 02:50:09;;;;;;;;;;;16.50;57.40;;;12.53;100.00;95385.06;4993975;28;19909;-52
2023/05/23 02:52:35;;;;;;;;;;;16.60;57.50;;;12.55;100.00;95385.59;4995044;28;20330;-48
2023/05/23 02:55:01;;;;;;;;;;;16.60;57.50;;;12.56;100.00;95392.53;4995084;28;19909;-48
2023/05/23 02:57:27;;;;;;;;;;;16.60;57.60;;;12.58;100.00;95392.25;4988592;28;19910;-49
2023/05/23 02:59:52;;;;;;;;;;;16.60;57.60;;;12.58;100.00;95392.25;4994809;28;19915;-47
2023/05/23 03:02:18;;;;;;;;;;;16.60;57.70;;;12.60;100.00;95388.25;4989438;28;19917;-51
2023/05/23 03:04:44;;;;;;;;;;;16.60;57.80;;;12.62;100.00;95391.41;4990086;28;19909;-50
2023/05/23 03:07:11;;;;;;;;;;;16.60;57.80;;;12.66;100.00;95392.44;4994904;28;19913;-52
2023/05/23 03:09:37;;;;;;;;;;;16.60;57.90;;;12.72;100.00;95385.16;4993337;28;19931;-51
2023/05/23 03:12:03;;;;;;;;;;;16.70;58.00;;;12.78;100.00;95383.25;4993428;28;19913;-49
2023/05/23 03:14:29;;;;;;;;;;;16.80;58.10;;;12.83;100.00;95389.34;4993544;28;20451;-50
2023/05/23 03:16:55;;;;;;;;;;;16.80;58.10;;;12.86;100.00;95393.31;4994910;28;20007;-51
2023/05/23 03:19:20;;;;;;;;;;;16.80;58.20;;;12.91;100.00;95387.91;4994646;28;19910;-49
2023/05/23 03:21:46;;;;;;;;;;;16.90;58.30;;;12.96;100.00;95394.00;4985467;28;19920;-53
2023/05/23 03:24:12;;;;;;;;;;;16.90;58.30;;;13.02;100.00;95394.75;4994443;28;19910;-56
2023/05/23 03:26:38;;;;;;;;;;;17.00;58.40;;;13.07;100.00;95396.59;4993043;28;20291;-51
2023/05/23 03:29:03;;;;;;;;;;;17.00;58.40;;;13.11;100.00;95405.63;4994448;28;20287;-50
2023/05/23 03:31:29;;;;;;;;;;;17.00;58.40;;;13.14;100.00;95399.72;4994522;28;20292;-51
2023/05/23 03:33:55;;;;;;;;;;;17.10;58.40;;;13.15;100.00;95399.41;4990335;28;19945;-49
2023/05/23 03:36:24;;;;;;;;;;;17.20;58.50;;;13.16;100.00;95406.38;4994177;28;19917;-53
2023/05/23 03:38:52;;;;;;;;;;;17.20;58.50;;;13.14;100.00;95400.50;4993418;28;20000;-50
2023/05/23 03:41:18;;;;;;;;;;;17.20;58.40;;;13.19;100.00;95407.66;4994082;28;19925;-47
2023/05/23 03:43:43;;;;;;;;;;;17.20;58.40;;;13.19;100.00;95407.66;4994353;28;20417;-50
2023/05/23 03:46:09;;;;;;;;;;;17.30;58.40;;;13.23;100.00;95406.03;4987880;28;19988;-48
2023/05/23 03:48:35;;;;;;;;;;;17.30;58.40;;;13.25;100.00;95411.09;4993908;28;20292;-48
2023/05/23 03:51:02;;;;;;;;;;;17.30;58.40;;;13.27;100.00;95411.63;4992703;28;19910;-49
2023/05/23 03:53:27;;;;;;;;;;;17.40;58.50;;;13.30;100.00;95419.88;4994044;28;19935;-52
2023/05/23 03:55:53;;;;;;;;;;;17.40;58.50;;;13.33;100.00;95416.63;4993187;28;19910;-51
2023/05/23 03:58:19;;;;;;;;;;;17.50;58.50;;;13.37;100.00;95422.19;4974718;28;19909;-50
2023/05/23 04:00:46;;;;;;;;;;;17.50;58.50;;;13.39;100.00;95430.75;4991323;28;20027;-50
2023/05/23 04:03:16;;;;;;;;;;;17.50;58.50;;;13.44;100.00;95430.66;4992917;28;19913;-52
2023/05/23 04:05:44;;;;;;;;;;;17.60;58.60;;;13.47;100.00;95424.75;4992903;28;26720;-50
2023/05/23 04:08:09;;;;;;;;;;;17.60;58.60;;;13.53;100.00;95431.63;4992657;28;19913;-50
2023/05/23 04:10:35;;;;;;;;;;;17.70;58.50;;;13.59;100.00;95429.69;4993765;28;19972;-48
2023/05/23 04:13:01;;;;;;;;;;;17.80;58.60;;;13.63;100.00;95428.84;4993989;28;20292;-52
2023/05/23 04:15:26;;;;;;;;;;;17.80;58.60;;;13.69;100.00;95434.13;4992269;28;19909;-51
2023/05/23 04:17:53;;;;;;;;;;;17.90;58.60;;;13.76;100.00;95431.91;4993705;28;19909;-53
2023/05/23 04:20:19;;;;;;;;;;;17.90;58.50;;;13.83;100.00;95437.69;4992610;28;19909;-54
2023/05/23 04:22:44;;;;;;;;;;;18.00;58.50;;;13.89;100.00;95437.34;4993312;28;19917;-56
2023/05/23 04:25:11;;;;;;;;;;;18.10;58.60;;;13.96;100.00;95433.50;4993396;28;20356;-49
2023/05/23 04:27:39;;;;;;;;;;;18.20;58.50;;;14.04;100.00;95435.50;4992663;28;19917;-48
2023/05/23 04:30:08;;;;;;;;;;;18.30;59.10;;;14.10;100.00;95437.84;4993271;28;19913;-48
2023/05/23 04:32:34;;;;;;;;;;;18.30;58.50;;;14.18;100.00;95435.59;4990926;28;19913;-50
2023/05/23 04:35:01;;;;;;;;;;;18.50;58.50;;;14.28;100.00;95441.59;4992962;28;20330;-53
2023/05/23 04:37:27;;;;;;;;;;;18.50;58.40;;;14.35;100.00;95446.56;4993199;28;19980;-53
2023/05/23 04:39:53;;;;;;;;;;;18.60;58.40;;;14.41;100.00;95444.63;4975792;28;19917;-51
2023/05/23 04:42:23;;;;;;;;;;;18.70;58.40;;;14.49;100.00;95439.41;4973749;28;19913;-53
2023/05/23 04:44:50;;;;;;;;;;;18.80;58.30;;;14.53;100.00;95437.75;4982147;28;19910;-53
2023/05/23 04:47:17;;;;;;;;;;;18.90;58.30;;;14.63;100.00;95441.34;4981360;28;19910;-50
2023/05/23 04:49:44;;;;;;;;;;;19.00;58.30;;;14.70;100.00;95442.59;4973631;28;19909;-50
2023/05/23 04:52:09;;;;;;;;;;;19.10;58.20;;;14.77;100.00;95442.22;4973649;28;19910;-53
2023/05/23 04:54:36;;;;;;;;;;;19.20;58.20;;;14.85;100.00;95452.25;4973530;28;19914;-52
2023/05/23 04:57:02;;;;;;;;;;;19.20;58.10;;;14.91;100.00;95448.38;4973108;28;19910;-48
2023/05/23 04:59:28;;;;;;;;;;;19.30;58.10;;;14.98;100.00;95456.06;4973298;28;19916;-51
2023/05/23 05:01:54;;;;;;;;;;;19.40;58.20;;;15.07;100.00;95448.13;4972597;28;19914;-53
2023/05/23 05:04:19;;;;;;;;;;;19.50;58.20;;;15.15;100.00;95450.91;4975280;28;19988;-53
2023/05/23 05:06:47;;;;;;;;;;;19.50;58.10;;;15.22;100.00;95454.00;4973419;28;20005;-48
2023/05/23 05:09:13;;;;;;;;;;;19.70;58.10;;;15.27;100.00;95453.13;4979172;28;20000;-51
2023/05/23 05:11:39;;;;;;;;;;;19.70;58.00;;;15.34;100.00;95460.78;4973478;28;20331;-50
2023/05/23 05:14:05;;;;;;;;;;;19.80;58.00;;;15.41;100.00;95448.53;4974775;28;19918;-52
2023/05/23 05:16:30;;;;;;;;;;;19.90;57.90;;;15.55;100.00;95453.13;4981241;28;19964;-48
2023/05/23 05:18:56;;;;;;;;;;;20.00;57.80;;;15.63;100.00;95455.09;4972969;28;20384;-50
2023/05/23 05:21:22;;;;;;;;;;;20.10;57.70;;;15.75;100.00;95458.09;4973415;28;20005;-51
2023/05/23 05:23:47;;;;;;;;;;;20.30;57.70;;;15.79;100.00;95452.94;4973037;28;19945;-50
2023/05/23 05:26:13;;;;;;;;;;;20.40;57.60;;;15.86;100.00;95453.34;4975398;28;20343;-55
2023/05/23 05:28:40;;;;;;;;;;;20.50;57.50;;;15.96;100.00;95453.91;4991076;28;19910;-49
2023/05/23 05:31:05;;;;;;;;;;;20.60;57.40;;;16.07;100.00;95448.31;4980867;28;19909;-55
2023/05/23 05:33:34;;;;;;;;;;;20.80;57.40;;;16.15;100.00;95451.06;4983343;28;20019;-50
2023/05/23 05:36:06;;;;;;;;;;;20.80;57.20;;;16.32;100.00;95446.94;4997450;28;20392;-51
2023/05/23 05:38:31;;;;;;;;;;;21.00;57.10;;;16.45;100.00;95450.66;4987751;28;19960;-52
2023/05/23 05:40:57;;;;;;;;;;;21.20;57.70;;;16.60;100.00;95455.69;5007712;28;20293;-49
2023/05/23 05:43:25;;;;;;;;;;;21.30;56.90;;;16.74;98.73;95453.75;4982183;28;19914;-52
2023/05/23 05:45:51;;;;;;;;;;;21.50;56.80;;;16.88;95.95;95456.38;4984270;28;19996;-51
2023/05/23 05:48:16;;;;;;;;;;;21.60;56.60;;;17.00;93.39;95453.94;4985610;28;20000;-52
2023/05/23 05:50:44;;;;;;;;;;;21.80;56.50;;;17.19;92.82;95464.47;4985956;28;19979;-55
2023/05/23 05:53:11;;;;;;;;;;;22.00;56.40;;;17.38;92.16;95464.25;4982088;28;19933;-54
2023/05/23 05:55:37;;;;;;;;;;;22.20;56.20;;;17.54;88.87;95460.03;4983183;28;19909;-55
2023/05/23 05:58:03;;;;;;;;;;;22.40;56.00;;;17.82;88.56;95467.13;4989208;28;20014;-55
2023/05/23 06:00:29;;;;;;;;;;;22.70;55.80;;;18.08;85.78;95459.88;4991538;28;19920;-51
2023/05/23 06:02:58;;;;;;;;;;;23.00;55.60;;;18.46;85.26;95462.78;4990111;28;19917;-51
2023/05/23 06:05:25;;;;;;;;;;;23.30;55.30;;;18.78;82.23;95473.41;4990665;28;19909;-51
2023/05/23 06:07:51;;;;;;;;;;;23.60;55.10;;;19.09;81.77;95476.69;4991547;28;20010;-50
2023/05/23 06:10:17;;;;;;;;;;;23.90;54.80;;;19.33;80.09;95472.66;4990110;28;20269;-51
2023/05/23 06:12:44;;;;;;;;;;;24.20;54.60;;;19.43;77.70;95480.44;4993274;28;19917;-53
2023/05/23 06:15:12;;;;;;;;;;;24.40;54.30;;;19.48;76.54;95477.53;4986002;28;20368;-50
2023/05/23 06:17:38;;;;;;;;;;;24.60;54.00;;;19.63;76.30;95484.31;4995886;28;20360;-52
2023/05/23 06:20:04;;;;;;;;;;;24.70;54.30;;;19.85;75.00;95484.06;4994124;28;19948;-52
2023/05/23 06:22:30;;;;;;;;;;;25.00;53.30;;;20.00;74.07;95474.63;4976478;28;19949;-51
2023/05/23 06:24:56;;;;;;;;;;;25.20;53.00;;;20.29;73.29;95475.72;4976560;28;20683;-55
2023/05/23 06:27:21;;;;;;;;;;;25.50;52.70;;;20.54;70.39;95473.97;4981501;28;20369;-54
2023/05/23 06:29:47;;;;;;;;;;;25.80;52.40;;;20.77;69.65;95467.06;4991963;28;19909;-53
2023/05/23 06:32:13;;;;;;;;;;;26.00;52.10;;;20.82;69.17;95492.38;4992023;28;19917;-51
2023/05/23 06:34:38;;;;;;;;;;;26.30;51.80;;;20.93;68.95;95488.09;4982569;28;19955;-50
2023/05/23 06:37:04;;;;;;;;;;;26.40;51.50;;;20.78;67.86;95486.81;4983413;28;19943;-52
2023/05/23 06:39:30;;;;;;;;;;;26.50;51.20;;;21.03;67.54;95487.72;4991102;28;19909;-53
2023/05/23 06:41:56;;;;;;;;;;;26.70;50.90;;;21.06;66.59;95488.94;4982263;28;20039;-50
2023/05/23 06:44:21;;;;;;;;;;;26.80;50.50;;;21.00;66.06;95494.59;4986381;28;20036;-55
2023/05/23 06:46:47;;;;;;;;;;;26.90;50.20;;;21.10;65.97;95490.66;4983676;28;19952;-50
2023/05/23 06:49:14;;;;;;;;;;;27.00;49.90;;;21.02;66.40;95495.00;4975702;28;19960;-50
2023/05/23 06:51:40;;;;;;;;;;;27.00;49.70;;;21.01;66.73;95489.94;4981368;28;19914;-49
2023/05/23 06:54:06;;;;;;;;;;;26.90;49.60;;;21.02;66.38;95486.09;4975664;28;20011;-49
2023/05/23 06:56:31;;;;;;;;;;;26.90;49.40;;;21.22;66.70;95484.50;4975294;28;19910;-51
2023/05/23 06:58:57;;;;;;;;;;;27.10;49.20;;;21.30;65.11;95483.59;4976971;28;20380;-55
2023/05/23 07:01:23;;;;;;;;;;;27.20;49.00;;;21.51;65.51;95478.13;4975233;28;19955;-52
2023/05/23 07:03:49;;;;;;;;;;;27.30;48.90;;;21.78;64.09;95478.59;4975092;28;19932;-52
2023/05/23 07:06:15;;;;;;;;;;;27.50;48.70;;;21.91;63.96;95477.50;4975289;28;19910;-49
2023/05/23 07:08:41;;;;;;;;;;;27.70;48.50;;;21.81;62.74;95480.63;4980989;28;20060;-53
2023/05/23 07:11:07;;;;;;;;;;;27.90;48.10;;;21.93;62.47;95486.84;4975537;28;20000;-52
2023/05/23 07:13:32;;;;;;;;;;;28.00;47.90;;;22.03;62.70;95492.94;4975435;28;20253;-54
2023/05/23 07:15:58;;;;;;;;;;;28.00;47.60;;;22.00;61.89;95496.34;4984923;28;19949;-54
2023/05/23 07:18:24;;;;;;;;;;;28.00;47.60;;;21.93;62.10;95494.19;4975348;28;19945;-55
2023/05/23 07:20:50;;;;;;;;;;;28.10;47.40;;;21.92;61.85;95500.75;4976037;28;19914;-52
2023/05/23 07:23:16;;;;;;;;;;;28.00;47.30;;;21.97;62.52;95497.84;4975104;28;19960;-51
2023/05/23 07:25:43;;;;;;;;;;;28.00;47.30;;;21.81;62.34;95513.97;4987178;28;19937;-54
2023/05/23 07:28:09;;;;;;;;;;;27.90;47.20;;;21.49;63.68;95513.69;4988406;28;20395;-54
2023/05/23 07:30:35;;;;;;;;;;;27.70;47.00;;;21.25;64.27;95524.47;4975069;28;20386;-50
2023/05/23 07:33:01;;;;;;;;;;;27.50;47.00;;;20.97;65.44;95524.25;4974846;28;20309;-50
2023/05/23 07:35:27;;;;;;;;;;;27.20;47.60;;;20.75;66.48;95518.03;4987670;28;19977;-52
2023/05/23 07:37:54;;;;;;;;;;;27.00;47.00;;;20.62;67.14;95526.41;4987218;28;19916;-49
2023/05/23 07:40:21;;;;;;;;;;;26.80;47.10;;;20.52;67.28;95527.59;4974844;28;19917;-51
2023/05/23 07:42:47;;;;;;;;;;;26.50;47.20;;;20.31;68.43;95533.75;4974684;28;20205;-49
2023/05/23 07:45:13;;;;;;;;;;;26.30;47.30;;;20.21;69.05;95533.34;4983568;28;20280;-50
2023/05/23 07:47:40;;;;;;;;;;;26.00;47.40;;;20.04;70.11;95534.22;4974876;28;19917;-53
2023/05/23 07:50:07;;;;;;;;;;;25.80;47.60;;;19.72;70.85;95533.75;4976040;28;19909;-54
2023/05/23 07:52:33;;;;;;;;;;;25.60;47.70;;;19.58;72.11;95533.91;4979749;28;19910;-56
2023/05/23 07:54:59;;;;;;;;;;;25.30;47.90;;;19.36;72.83;95532.22;4974727;28;19998;-52
2023/05/23 07:57:25;;;;;;;;;;;25.00;47.90;;;19.27;73.07;95536.03;4984716;28;19937;-51
2023/05/23 07:59:52;;;;;;;;;;;24.80;48.30;;;19.31;73.59;95542.41;4974681;28;20008;-55
2023/05/23 08:02:19;;;;;;;;;;;24.60;48.50;;;19.24;73.64;95548.31;4975699;28;19961;-50
2023/05/23 08:04:46;;;;;;;;;;;24.40;48.70;;;19.18;74.59;95546.88;4974495;28;20317;-50
2023/05/23 08:07:12;;;;;;;;;;;24.30;48.80;;;19.15;74.51;95544.81;4974738;28;19956;-50
2023/05/23 08:09:39;;;;;;;;;;;24.20;49.00;;;19.10;74.54;95537.66;4979283;28;19916;-54
2023/05/23 08:12:08;;;;;;;;;;;24.10;49.10;;;19.08;74.86;95534.47;4974249;28;20012;-56
2023/05/23 08:14:35;;;;;;;;;;;24.00;49.20;;;19.14;74.59;95540.50;4979201;28;19909;-53
2023/05/23 08:17:01;;;;;;;;;;;24.00;49.40;;;19.13;74.09;95539.72;4977909;28;19910;-49
2023/05/23 08:19:28;;;;;;;;;;;23.90;49.50;;;19.11;74.38;95538.44;4974255;28;19910;-50
2023/05/23 08:21:53;;;;;;;;;;;23.90;49.60;;;19.09;74.63;95533.38;4979694;28;20430;-51
2023/05/23 08:24:20;;;;;;;;;;;23.80;49.60;;;19.11;74.70;95536.53;4987287;28;19909;-49
2023/05/23 08:26:46;;;;;;;;;;;23.80;49.60;;;19.08;74.09;95537.19;4974442;28;19909;-52
2023/05/23 08:29:13;;;;;;;;;;;23.90;49.70;;;18.98;74.54;95536.72;4985512;28;19945;-53
2023/05/23 08:31:39;;;;;;;;;;;24.00;49.50;;;18.97;74.90;95537.84;4980579;28;19910;-49
2023/05/23 08:34:05;;;;;;;;;;;24.20;49.40;;;19.24;74.20;95534.81;4985265;28;19980;-53
2023/05/23 08:36:35;;;;;;;;;;;24.40;49.30;;;19.49;73.30;95540.44;5021344;22;19933;-48
2023/05/23 08:39:02;;;;;;;;;;;24.60;49.10;;;19.68;72.49;95542.78;4994028;28;19967;-48
2023/05/23 08:41:29;;;;;;;;;;;24.80;49.00;;;19.83;70.42;95548.47;4992906;28;19960;-48
2023/05/23 08:43:56;;;;;;;;;;;25.00;48.80;;;19.96;69.88;95538.56;4992787;28;19963;-50
2023/05/23 08:46:23;;;;;;;;;;;25.30;48.70;;;20.16;69.49;95545.16;5010239;28;20005;-48
2023/05/23 08:48:54;;;;;;;;;;;25.60;48.50;;;20.36;68.44;95535.47;5027956;28;19909;-52
2023/05/23 08:51:34;;;;;;;;;;;25.80;48.30;;;20.63;66.72;95541.53;5001574;28;19910;-50
2023/05/23 08:54:01;;;;;;;;;;;26.20;48.00;;;20.99;64.88;95544.41;5025601;28;19917;-53
2023/05/23 08:56:27;;;;;;;;;;;26.60;47.80;;;21.35;63.86;95542.19;5010954;28;19920;-47
2023/05/23 08:58:54;;;;;;;;;;;27.00;47.70;;;21.62;62.77;95538.91;5024954;28;19913;-46
2023/05/23 09:01:22;;;;;;;;;;;27.30;47.30;;;21.96;61.42;95539.63;5026653;28;19991;-51
2023/05/23 09:03:50;;;;;;;;;;;27.80;47.00;;;22.22;59.90;95531.19;5009768;28;19909;-46
2023/05/23 09:06:17;;;;;;;;;;;28.20;46.60;;;22.67;58.82;95532.91;5026665;28;19909;-53
2023/05/23 09:08:45;;;;;;;;;;;28.60;46.20;;;22.81;56.02;95529.81;5004908;28;20017;-50
2023/05/23 09:11:12;;;;;;;;;;;29.00;45.70;;;23.11;54.60;95535.75;5011333;28;19957;-46
2023/05/23 09:13:39;;;;;;;;;;;29.30;45.40;;;23.64;54.31;95539.13;5026027;28;20330;-50
2023/05/23 09:16:10;;;;;;;;;;;29.70;45.10;;;23.80;51.44;95531.00;5004009;28;19909;-50
2023/05/23 09:18:42;;;;;;;;;;;30.10;44.60;;;23.85;52.76;95530.75;5006900;28;19959;-51
2023/05/23 09:21:09;;;;;;;;;;;30.50;44.20;;;24.33;50.22;95522.53;5009415;28;19920;-49
2023/05/23 09:23:38;;;;;;;;;;;30.80;43.80;;;24.69;49.78;95518.69;5009465;28;20386;-50
2023/05/23 09:26:07;;;;;;;;;;;31.20;43.40;;;25.25;48.01;95525.69;5008397;28;19940;-50
2023/05/23 09:28:35;;;;;;;;;;;31.60;43.10;;;25.66;46.78;95523.31;5003186;28;20322;-53
2023/05/23 09:31:05;;;;;;;;;;;32.00;42.70;;;25.81;46.58;95525.94;5011415;28;19909;-49
2023/05/23 09:33:49;;;;;;;;;;;32.30;42.30;;;25.59;44.52;95522.03;5009570;28;20414;-52
2023/05/23 09:36:18;;;;;;;;;;;32.40;41.90;;;25.63;44.99;95522.09;5011198;28;20395;-49
2023/05/23 09:38:47;;;;;;;;;;;32.30;41.70;;;25.82;46.31;95518.53;5009612;28;19940;-52
2023/05/23 09:41:13;;;;;;;;;;;32.40;41.60;;;25.98;45.65;95513.78;5010532;28;20367;-50
2023/05/23 09:43:50;;;;;;;;;;;32.40;41.50;;;26.00;45.12;95514.19;5010252;28;20268;-48
2023/05/23 09:46:15;;;;;;;;;;;32.60;41.20;;;26.16;44.80;95516.75;5006828;28;19917;-49
2023/05/23 09:48:50;;;;;;;;;;;32.80;40.70;;;26.65;43.10;95510.50;5014599;28;20446;-48
2023/05/23 09:51:22;;;;;;;;;;;33.10;40.50;;;27.15;43.05;95508.41;5021614;28;19955;-48
2023/05/23 09:53:49;;;;;;;;;;;33.50;40.20;;;27.62;41.00;95517.09;5015389;28;19917;-50
2023/05/23 09:56:19;;;;;;;;;;;34.00;39.80;;;28.06;40.16;95508.13;5010764;28;19913;-51
2023/05/23 09:58:50;;;;;;;;;;;34.50;39.50;;;28.09;40.47;95518.34;5009480;28;19917;-49
2023/05/23 10:01:16;;;;;;;;;;;34.70;39.40;;;27.62;39.82;95514.38;5015198;28;19909;-48
2023/05/23 10:03:49;;;;;;;;;;;35.00;38.90;;;27.17;41.75;95508.03;5006769;28;19913;-52
2023/05/23 10:06:27;;;;;;;;;;;35.00;38.80;;;27.24;41.12;95505.38;5015240;28;20309;-49
2023/05/23 10:09:03;;;;;;;;;;;34.80;38.70;;;27.42;43.72;95514.56;5013883;28;19948;-48
2023/05/23 10:11:35;;;;;;;;;;;34.60;38.60;;;27.85;39.75;95508.75;5015319;28;19913;-48
2023/05/23 10:14:05;;;;;;;;;;;34.70;38.50;;;28.35;39.47;95503.66;5013233;28;19916;-48
2023/05/23 10:17:14;;;;;;;;;;;35.30;38.20;;;28.56;38.62;95500.28;5001115;28;19959;-49
2023/05/23 10:20:01;;;;;;;;;;;35.80;37.30;;;29.07;36.90;95502.13;5015073;28;19915;-46
2023/05/23 10:22:27;;;;;;;;;;;36.30;36.90;;;28.77;36.72;95500.41;5026067;28;20402;-49
2023/05/23 10:24:54;;;;;;;;;;;36.20;36.80;;;28.94;36.96;95489.91;5013103;28;20000;-48
2023/05/23 10:27:20;;;;;;;;;;;36.50;36.50;;;29.01;36.99;95487.22;5011188;28;19913;-49
2023/05/23 10:29:47;;;;;;;;;;;36.60;36.30;;;29.02;36.86;95486.84;5004470;28;20256;-48
2023/05/23 10:32:15;;;;;;;;;;;36.50;36.20;;;29.11;38.86;95482.94;5013868;28;20020;-46
2023/05/23 10:35:29;;;;;;;;;;;36.50;36.30;;;28.85;38.14;95486.72;5014563;28;19955;-50
2023/05/23 10:38:25;;;;;;;;;;;36.20;36.10;;;28.96;38.20;95482.88;5013579;28;20272;-51
2023/05/23 10:41:05;;;;;;;;;;;36.10;36.10;;;28.55;37.40;95487.75;5015104;28;20003;-52
2023/05/23 10:43:54;;;;;;;;;;;35.90;36.10;;;27.94;38.22;95489.28;5028213;28;19917;-48
2023/05/23 10:46:21;;;;;;;;;;;35.60;36.00;;;27.90;39.46;95481.81;5011108;28;19948;-47
2023/05/23 10:48:47;;;;;;;;;;;35.30;35.90;;;27.76;38.59;95483.63;5013604;28;19909;-50
2023/05/23 10:51:16;;;;;;;;;;;35.20;36.00;;;27.96;39.07;95476.78;5003454;28;20330;-49
2023/05/23 10:53:45;;;;;;;;;;;35.20;35.80;;;27.96;38.51;95482.25;5013527;28;19952;-52
2023/05/23 10:56:23;;;;;;;;;;;35.10;35.80;;;27.93;39.47;95474.81;5013182;28;20433;-50
2023/05/23 10:58:57;;;;;;;;;;;34.90;35.70;;;27.78;39.52;95479.38;5014384;28;19963;-50
2023/05/23 11:01:23;;;;;;;;;;;34.80;35.70;;;28.03;37.98;95467.84;5014186;28;20287;-49
2023/05/23 11:03:52;;;;;;;;;;;35.20;35.30;;;28.55;36.74;95474.03;5013092;28;19909;-47
2023/05/23 11:06:43;;;;;;;;;;;35.80;35.00;;;29.39;35.75;95465.78;5014020;28;19909;-47
2023/05/23 11:09:20;;;;;;;;;;;36.60;34.60;;;30.00;34.70;95463.13;4992818;28;19916;-46
2023/05/23 11:12:15;;;;;;;;;;;37.40;34.20;;;30.38;34.55;95456.03;5011995;28;19909;-50
2023/05/23 11:14:46;;;;;;;;;;;38.20;33.70;;;30.45;34.30;95449.72;5003892;28;19909;-46
2023/05/23 11:17:12;;;;;;;;;;;38.60;33.10;;;30.88;34.02;95445.69;5014195;28;19940;-46
2023/05/23 11:19:38;;;;;;;;;;;39.00;32.80;;;30.48;32.34;95440.69;5014071;28;20684;-47